createdAt,value
2018-11-05T00:00:53.651Z,78.80
2018-11-05T00:03:22.393Z,79.11
2018-11-05T00:05:51.937Z,79.65
2018-11-05T00:08:20.689Z,79.79
2018-11-05T00:10:49.548Z,79.77
2018-11-05T00:13:18.290Z,79.69
2018-11-05T00:15:47.037Z,79.74
2018-11-05T00:18:15.782Z,79.98
2018-11-05T00:20:44.621Z,79.66
2018-11-05T00:23:13.306Z,79.85
2018-11-05T00:25:42.036Z,80.28
2018-11-05T00:28:10.883Z,79.91
2018-11-05T00:30:39.639Z,79.74
2018-11-05T00:33:08.359Z,80.28
2018-11-05T00:35:37.061Z,80.36
2018-11-05T00:38:05.853Z,80.28
2018-11-05T00:40:34.578Z,79.95
2018-11-05T00:43:03.385Z,79.93
2018-11-05T00:45:32.189Z,80.11
2018-11-05T00:48:00.800Z,79.73
2018-11-05T00:50:29.505Z,79.96
2018-11-05T00:52:58.189Z,79.91
2018-11-05T00:55:26.873Z,80.02
2018-11-05T00:57:55.573Z,80.25
2018-11-05T01:00:24.273Z,79.94
2018-11-05T01:02:52.917Z,79.74
2018-11-05T01:05:21.594Z,80.21
2018-11-05T01:07:50.254Z,79.92
2018-11-05T01:10:18.919Z,80.01
2018-11-05T01:12:47.661Z,80.01
2018-11-05T01:15:17.633Z,80.24
2018-11-05T01:17:46.313Z,80.23
2018-11-05T01:20:15.846Z,80.37
2018-11-05T01:22:44.713Z,80.40
2018-11-05T01:25:13.418Z,80.22
2018-11-05T01:27:42.159Z,80.52
2018-11-05T01:30:12.423Z,80.35
2018-11-05T01:32:41.415Z,80.82
2018-11-05T01:35:11.754Z,80.35
2018-11-05T01:37:40.466Z,80.54
2018-11-05T01:40:11.497Z,80.35
2018-11-05T01:42:40.229Z,80.27
2018-11-05T01:45:10.668Z,80.21
2018-11-05T01:47:39.574Z,80.21
2018-11-05T01:50:09.909Z,80.49
2018-11-05T01:52:38.994Z,80.29
2018-11-05T01:55:08.615Z,80.23
2018-11-05T01:57:37.801Z,80.51
2018-11-05T02:00:09.757Z,80.14
2018-11-05T02:02:38.545Z,80.25
2018-11-05T02:05:08.067Z,80.31
2018-11-05T02:07:36.989Z,80.52
2018-11-05T02:10:08.368Z,80.30
2018-11-05T02:12:37.183Z,79.92
2018-11-05T02:15:06.649Z,79.76
2018-11-05T02:17:35.434Z,80.03
2018-11-05T02:20:04.839Z,79.57
2018-11-05T02:22:33.573Z,80.04
2018-11-05T02:25:02.323Z,80.69
2018-11-05T02:27:31.006Z,80.46
2018-11-05T02:29:59.749Z,80.36
2018-11-05T02:32:28.389Z,80.42
2018-11-05T02:34:57.057Z,79.93
2018-11-05T02:37:25.761Z,80.57
2018-11-05T02:39:54.549Z,80.65
2018-11-05T02:42:23.194Z,81.17
2018-11-05T02:44:51.863Z,80.90
2018-11-05T02:47:20.614Z,80.84
2018-11-05T02:49:49.449Z,81.28
2018-11-05T02:52:18.205Z,81.18
2018-11-05T02:54:46.874Z,81.34
2018-11-05T02:57:15.749Z,81.53
2018-11-05T02:59:44.489Z,81.53
2018-11-05T03:02:13.143Z,82.12
2018-11-05T03:04:41.842Z,82.07
2018-11-05T03:07:10.589Z,81.90
2018-11-05T03:09:39.326Z,82.45
2018-11-05T03:12:08.163Z,82.50
2018-11-05T03:14:37.033Z,82.76
2018-11-05T03:17:06.210Z,82.57
2018-11-05T03:19:34.871Z,82.97
2018-11-05T03:22:03.550Z,83.04
2018-11-05T03:24:32.303Z,83.09
2018-11-05T03:27:00.937Z,83.08
2018-11-05T03:29:29.650Z,82.76
2018-11-05T03:31:58.285Z,82.81
2018-11-05T03:34:27.039Z,83.29
2018-11-05T03:36:55.702Z,82.97
2018-11-05T03:39:24.416Z,82.73
2018-11-05T03:41:53.073Z,82.73
2018-11-05T03:44:21.771Z,82.63
2018-11-05T03:46:50.569Z,82.65
2018-11-05T03:49:19.245Z,82.96
2018-11-05T03:51:47.939Z,82.91
2018-11-05T03:54:16.728Z,82.55
2018-11-05T03:56:45.639Z,82.39
2018-11-05T03:59:14.309Z,82.61
2018-11-05T04:01:43.078Z,83.19
2018-11-05T04:04:11.794Z,82.77
2018-11-05T04:06:40.609Z,83.04
2018-11-05T04:09:10.814Z,82.84
2018-11-05T04:11:39.670Z,82.87
2018-11-05T04:14:08.711Z,82.84
2018-11-05T04:16:37.434Z,83.69
2018-11-05T04:19:06.554Z,83.92
2018-11-05T04:21:40.675Z,83.66
2018-11-05T04:24:10.104Z,83.46
2018-11-05T04:26:38.861Z,83.80
2018-11-05T04:29:08.065Z,83.94
2018-11-05T04:31:36.998Z,83.58
2018-11-05T04:34:05.954Z,83.15
2018-11-05T04:36:35.104Z,83.52
2018-11-05T04:39:05.092Z,83.44
2018-11-05T04:41:33.970Z,84.13
2018-11-05T04:44:02.726Z,84.16
2018-11-05T04:46:31.401Z,84.69
2018-11-05T04:49:00.067Z,84.31
2018-11-05T04:51:28.760Z,84.59
2018-11-05T04:53:57.470Z,84.18
2018-11-05T04:56:26.157Z,84.27
2018-11-05T04:58:54.781Z,84.45
2018-11-05T05:01:23.486Z,84.69
2018-11-05T05:03:52.282Z,84.70
2018-11-05T05:06:20.945Z,83.96
2018-11-05T05:08:49.583Z,84.00
2018-11-05T05:11:18.389Z,83.58
2018-11-05T05:13:47.049Z,83.82
2018-11-05T05:16:15.822Z,83.84
2018-11-05T05:18:44.454Z,84.19
2018-11-05T05:21:13.145Z,84.52
2018-11-05T05:23:41.883Z,84.11
2018-11-05T05:26:10.670Z,84.32
2018-11-05T05:28:39.405Z,84.33
2018-11-05T05:31:08.125Z,84.08
2018-11-05T05:33:37.171Z,84.24
2018-11-05T05:36:06.157Z,84.17
2018-11-05T05:38:34.978Z,84.41
2018-11-05T05:41:03.675Z,85.12
2018-11-05T05:43:32.522Z,85.20
2018-11-05T05:46:01.250Z,85.32
2018-11-05T05:48:30.036Z,85.30
2018-11-05T05:50:58.885Z,84.83
2018-11-05T05:53:27.718Z,84.73
2018-11-05T05:55:56.547Z,84.55
2018-11-05T05:58:25.187Z,84.81
2018-11-05T06:00:53.976Z,85.47
2018-11-05T06:03:22.858Z,85.49
2018-11-05T06:05:51.540Z,85.20
2018-11-05T06:08:20.180Z,84.99
2018-11-05T06:10:49.146Z,84.65
2018-11-05T06:13:17.994Z,84.19
2018-11-05T06:15:46.875Z,84.17
2018-11-05T06:18:15.725Z,84.28
2018-11-05T06:20:44.386Z,84.13
2018-11-05T06:23:13.136Z,84.60
2018-11-05T06:25:41.891Z,84.42
2018-11-05T06:28:10.667Z,84.59
2018-11-05T06:30:39.333Z,84.42
2018-11-05T06:33:08.080Z,84.70
2018-11-05T06:35:36.903Z,84.92
2018-11-05T06:38:06.045Z,84.56
2018-11-05T06:40:34.751Z,84.26
2018-11-05T06:43:03.453Z,84.51
2018-11-05T06:45:32.280Z,84.22
2018-11-05T06:48:01.117Z,83.93
2018-11-05T06:50:29.952Z,83.57
2018-11-05T06:52:58.686Z,83.88
2018-11-05T06:55:27.485Z,83.48
2018-11-05T06:57:56.152Z,83.44
2018-11-05T07:00:25.878Z,83.47
2018-11-05T07:02:54.650Z,83.00
2018-11-05T07:05:23.426Z,82.83
2018-11-05T07:07:52.172Z,82.29
2018-11-05T07:10:20.944Z,82.12
2018-11-05T07:12:49.593Z,81.92
2018-11-05T07:15:19.341Z,81.55
2018-11-05T07:17:49.199Z,81.27
2018-11-05T07:20:19.149Z,80.75
2018-11-05T07:22:48.751Z,80.52
2018-11-05T07:25:17.564Z,79.86
2018-11-05T07:27:46.356Z,79.99
2018-11-05T07:30:17.076Z,79.80
2018-11-05T07:32:46.184Z,79.71
2018-11-05T07:35:15.672Z,79.28
2018-11-05T07:37:44.421Z,78.90
2018-11-05T07:40:14.681Z,78.17
2018-11-05T07:42:43.481Z,77.46
2018-11-05T07:45:14.847Z,77.16
2018-11-05T07:47:44.620Z,76.78
2018-11-05T07:50:14.621Z,76.78
2018-11-05T07:52:43.257Z,76.63
2018-11-05T07:55:13.358Z,76.54
2018-11-05T07:57:43.374Z,75.84
2018-11-05T08:00:18.542Z,75.36
2018-11-05T08:02:48.212Z,75.42
2018-11-05T08:05:18.035Z,74.84
2018-11-05T08:07:47.237Z,74.71
2018-11-05T08:10:15.905Z,73.67
2018-11-05T08:12:44.658Z,73.24
2018-11-05T08:15:15.897Z,73.72
2018-11-05T08:17:46.830Z,72.99
2018-11-05T08:20:15.598Z,73.01
2018-11-05T08:22:44.246Z,72.71
2018-11-05T08:25:13.685Z,72.43
2018-11-05T08:27:42.665Z,71.71
2018-11-05T08:30:15.096Z,71.70
2018-11-05T08:32:43.766Z,71.67
2018-11-05T08:35:13.043Z,71.05
2018-11-05T08:37:42.429Z,70.90
2018-11-05T08:40:14.543Z,70.08
2018-11-05T08:42:43.763Z,70.19
2018-11-05T08:45:13.638Z,69.31
2018-11-05T08:47:42.810Z,69.48
2018-11-05T08:50:13.462Z,68.92
2018-11-05T08:52:42.099Z,68.61
2018-11-05T08:55:14.282Z,68.02
2018-11-05T08:57:43.401Z,67.32
2018-11-05T09:00:20.203Z,67.02
2018-11-05T09:02:49.218Z,66.48
2018-11-05T09:05:18.230Z,65.95
2018-11-05T09:07:47.871Z,65.54
2018-11-05T09:10:16.763Z,65.21
2018-11-05T09:12:45.333Z,64.82
2018-11-05T09:15:15.469Z,64.63
2018-11-05T09:17:45.076Z,64.30
2018-11-05T09:20:15.212Z,63.65
2018-11-05T09:22:43.973Z,63.83
2018-11-05T09:25:13.711Z,63.64
2018-11-05T09:27:42.484Z,63.22
2018-11-05T09:30:15.377Z,63.15
2018-11-05T09:32:45.178Z,62.81
2018-11-05T09:35:14.116Z,62.39
2018-11-05T09:37:42.997Z,62.64
2018-11-05T09:40:15.050Z,62.51
2018-11-05T09:42:44.604Z,62.47
2018-11-05T09:45:16.235Z,62.75
2018-11-05T09:47:45.617Z,61.95
2018-11-05T09:50:14.936Z,62.29
2018-11-05T09:52:43.625Z,61.91
2018-11-05T09:55:13.322Z,61.85
2018-11-05T09:57:42.493Z,61.49
2018-11-05T10:00:13.959Z,61.61
2018-11-05T10:02:48.116Z,61.19
2018-11-05T10:05:17.131Z,60.86
2018-11-05T10:07:46.154Z,60.85
2018-11-05T10:10:15.851Z,61.22
2018-11-05T10:12:44.868Z,60.74
2018-11-05T10:15:14.578Z,61.11
2018-11-05T10:17:43.489Z,60.60
2018-11-05T10:20:16.562Z,61.21
2018-11-05T10:26:42.171Z,60.56
2018-11-05T10:29:11.439Z,60.59
2018-11-05T10:31:40.620Z,61.01
2018-11-05T10:34:12.261Z,60.81
2018-11-05T10:36:44.578Z,60.64
2018-11-05T10:39:19.440Z,60.67
2018-11-05T10:41:52.062Z,60.43
2018-11-05T10:44:25.095Z,60.74
2018-11-05T10:46:55.932Z,59.79
2018-11-05T10:49:30.858Z,60.10
2018-11-05T10:52:05.630Z,60.39
2018-11-05T10:54:38.249Z,60.41
2018-11-05T10:57:07.513Z,60.16
2018-11-05T10:59:36.946Z,59.55
2018-11-05T11:02:16.061Z,59.82
2018-11-05T11:04:50.030Z,59.33
2018-11-05T11:07:19.194Z,59.07
2018-11-05T11:09:52.424Z,58.95
2018-11-05T11:12:22.564Z,58.71
2018-11-05T11:14:55.772Z,58.28
2018-11-05T11:17:26.413Z,58.27
2018-11-05T11:19:55.894Z,58.52
2018-11-05T11:22:27.889Z,57.56
2018-11-05T11:24:58.934Z,57.86
2018-11-05T11:27:28.187Z,57.21
2018-11-05T11:29:59.376Z,57.46
2018-11-05T11:32:32.232Z,57.65
2018-11-05T11:35:01.694Z,57.77
2018-11-05T11:37:35.044Z,57.04
2018-11-05T11:40:08.591Z,57.33
2018-11-05T11:42:42.327Z,56.92
2018-11-05T11:45:16.178Z,56.79
2018-11-05T11:47:50.339Z,56.94
2018-11-05T11:50:22.251Z,57.42
2018-11-05T11:52:53.252Z,56.86
2018-11-05T11:55:27.989Z,56.53
2018-11-05T11:58:01.444Z,56.48
2018-11-05T12:00:53.515Z,55.97
2018-11-05T12:03:23.229Z,54.77
2018-11-05T12:05:55.882Z,52.19
2018-11-05T12:11:07.281Z,48.04
2018-11-05T12:13:36.362Z,46.30
2018-11-05T12:16:05.584Z,43.81
2018-11-05T12:18:34.494Z,41.59
2018-11-05T12:21:03.733Z,41.51
2018-11-05T12:23:32.580Z,41.76
2018-11-05T12:26:01.730Z,39.58
2018-11-05T12:28:30.865Z,39.91
2018-11-05T12:30:59.546Z,39.03
2018-11-05T12:33:28.217Z,39.20
2018-11-05T12:35:56.898Z,38.92
2018-11-05T12:38:25.591Z,38.13
2018-11-05T12:40:54.374Z,38.23
2018-11-05T12:43:23.190Z,36.26
2018-11-05T12:45:52.083Z,36.12
2018-11-05T12:48:20.825Z,35.64
2018-11-05T12:50:49.539Z,34.53
2018-11-05T12:53:18.374Z,35.32
2018-11-05T12:55:47.061Z,34.26
2018-11-05T12:58:15.845Z,34.64
2018-11-05T13:00:44.567Z,33.67
2018-11-05T13:03:13.474Z,32.52
2018-11-05T13:05:42.214Z,31.85
2018-11-05T13:08:10.961Z,32.67
2018-11-05T13:10:39.717Z,32.00
2018-11-05T13:13:08.544Z,31.00
2018-11-05T13:15:37.431Z,31.41
2018-11-05T13:27:56.860Z,29.53
2018-11-05T13:30:27.620Z,30.04
2018-11-05T13:32:56.815Z,29.56
2018-11-05T13:35:25.876Z,28.62
2018-11-05T13:38:05.426Z,29.11
2018-11-05T13:40:39.818Z,28.55
2018-11-05T13:43:10.348Z,28.99
2018-11-05T13:45:40.567Z,28.94
2018-11-05T13:48:19.766Z,29.04
2018-11-05T13:50:53.266Z,28.25
2018-11-05T13:53:22.641Z,28.17
2018-11-05T13:55:52.441Z,28.58
2018-11-05T13:58:22.831Z,28.91
2018-11-05T14:00:54.383Z,28.42
2018-11-05T14:03:29.418Z,27.62
2018-11-05T14:06:01.648Z,28.11
2018-11-05T14:08:35.933Z,28.67
2018-11-05T14:11:05.781Z,29.35
2018-11-05T14:13:38.604Z,31.91
2018-11-05T14:16:10.983Z,33.98
2018-11-05T14:18:43.242Z,35.91
2018-11-05T14:21:12.448Z,37.23
2018-11-05T14:23:44.716Z,39.84
2018-11-05T14:26:27.982Z,40.66
2018-11-05T14:29:02.637Z,42.28
2018-11-05T14:31:32.269Z,43.62
2018-11-05T14:34:03.946Z,44.28
2018-11-05T14:36:36.003Z,45.51
2018-11-05T14:39:12.475Z,46.14
2018-11-05T14:41:43.256Z,46.60
2018-11-05T14:44:13.454Z,47.78
2018-11-05T14:46:46.115Z,47.63
2018-11-05T14:49:18.011Z,48.35
2018-11-05T14:51:47.708Z,48.65
2018-11-05T14:54:19.949Z,49.53
2018-11-05T14:56:53.283Z,49.72
2018-11-05T14:59:26.167Z,50.19
2018-11-05T15:02:00.591Z,50.73
2018-11-05T15:04:30.189Z,51.12
2018-11-05T15:07:04.577Z,51.37
2018-11-05T15:09:36.014Z,52.02
2018-11-05T15:12:09.049Z,52.25
2018-11-05T15:14:38.560Z,52.30
2018-11-05T15:17:10.019Z,52.84
2018-11-05T15:19:44.378Z,53.41
2018-11-05T15:22:16.486Z,53.56
2018-11-05T15:24:51.611Z,53.76
2018-11-05T15:27:26.338Z,54.06
2018-11-05T15:29:57.984Z,54.84
2018-11-05T15:35:17.494Z,55.58
2018-11-05T15:37:51.688Z,56.05
2018-11-05T15:40:23.043Z,55.69
2018-11-05T15:42:54.303Z,56.42
2018-11-05T15:45:27.905Z,56.64
2018-11-05T15:47:59.820Z,56.73
2018-11-05T15:50:31.167Z,57.36
2018-11-05T15:53:02.959Z,57.16
2018-11-05T16:03:49.117Z,58.91
2018-11-05T16:06:22.400Z,59.16
2018-11-05T16:08:53.237Z,58.90
2018-11-05T16:11:22.408Z,59.84
2018-11-05T16:14:19.264Z,59.90
2018-11-05T16:16:53.991Z,59.42
2018-11-05T16:30:31.771Z,62.19
2018-11-05T16:33:03.776Z,62.18
2018-11-05T16:35:33.077Z,62.80
2018-11-05T16:38:02.417Z,62.79
2018-11-05T16:40:31.905Z,63.05
2018-11-05T16:43:03.968Z,62.84
2018-11-05T16:45:35.216Z,63.46
2018-11-05T16:48:06.232Z,63.45
2018-11-05T16:50:35.393Z,63.58
2018-11-05T16:53:05.049Z,63.92
2018-11-05T16:55:36.314Z,64.15
2018-11-05T16:58:05.698Z,64.26
2018-11-05T17:00:36.198Z,64.14
2018-11-05T17:03:07.746Z,64.25
2018-11-05T17:05:39.275Z,64.61
2018-11-05T17:08:12.113Z,64.97
2018-11-05T17:10:41.184Z,65.14
2018-11-05T17:16:05.431Z,66.06
2018-11-05T17:18:38.180Z,65.62
2018-11-05T17:21:08.735Z,66.34
2018-11-05T17:23:37.901Z,66.31
2018-11-05T17:26:08.899Z,66.85
2018-11-05T17:28:40.297Z,66.35
2018-11-05T17:31:09.970Z,67.21
2018-11-05T17:33:39.855Z,68.84
2018-11-05T17:36:09.456Z,69.26
2018-11-05T17:38:41.050Z,69.57
2018-11-05T17:41:11.641Z,69.03
2018-11-05T17:43:40.873Z,68.50
2018-11-05T17:46:10.814Z,68.99
2018-11-05T17:48:39.864Z,69.20
2018-11-05T17:51:13.217Z,69.19
2018-11-05T17:53:42.681Z,69.31
2018-11-05T17:56:12.017Z,69.12
2018-11-05T17:58:42.087Z,69.30
2018-11-05T18:01:13.812Z,69.37
2018-11-05T18:03:45.131Z,69.34
2018-11-05T18:06:14.774Z,69.54
2018-11-05T18:08:44.350Z,69.68
2018-11-05T18:11:13.842Z,69.73
2018-11-05T18:13:43.083Z,70.35
2018-11-05T18:16:13.447Z,70.27
2018-11-05T18:18:43.724Z,70.28
2018-11-05T18:21:13.451Z,70.42
2018-11-05T18:23:43.263Z,70.34
2018-11-05T18:26:13.471Z,70.61
2018-11-05T18:28:50.572Z,70.69
2018-11-05T18:31:24.093Z,70.99
2018-11-05T18:33:54.762Z,71.54
2018-11-05T18:38:06.682Z,71.85
2018-11-05T18:40:39.123Z,71.28
2018-11-05T18:43:09.054Z,71.92
2018-11-05T18:45:43.104Z,71.91
2018-11-05T18:48:14.407Z,72.19
2018-11-05T18:50:48.245Z,72.26
2018-11-05T18:53:22.266Z,73.45
2018-11-05T18:55:54.660Z,73.40
2018-11-05T18:58:27.474Z,73.01
2018-11-05T19:00:58.242Z,72.91
2018-11-05T19:03:29.579Z,72.87
2018-11-05T19:06:08.727Z,73.43
2018-11-05T19:08:44.738Z,73.13
2018-11-05T19:11:20.184Z,73.72
2018-11-05T19:13:54.255Z,73.19
2018-11-05T19:16:32.846Z,73.11
2018-11-05T19:19:07.083Z,73.57
2018-11-05T19:21:39.434Z,73.63
2018-11-05T19:24:10.893Z,73.65
2018-11-05T19:26:41.787Z,73.38
2018-11-05T19:29:13.046Z,73.90
2018-11-05T19:31:49.177Z,74.29
2018-11-05T19:34:23.747Z,74.27
2018-11-05T19:36:57.626Z,74.20
2018-11-05T19:39:28.274Z,74.42
2018-11-05T19:42:00.293Z,74.52
2018-11-05T19:44:31.640Z,74.58
2018-11-05T19:47:03.955Z,74.51
2018-11-05T19:49:36.509Z,74.87
2018-11-05T19:52:07.131Z,75.33
2018-11-05T19:54:42.090Z,75.80
2018-11-05T19:57:13.565Z,76.00
2018-11-05T19:59:50.597Z,75.66
2018-11-05T20:02:27.590Z,75.46
2018-11-05T20:05:03.373Z,75.43
2018-11-05T20:07:38.358Z,75.34
2018-11-05T20:10:14.843Z,75.50
2018-11-05T20:15:27.264Z,75.70
2018-11-05T20:17:58.867Z,75.85
2018-11-05T20:20:32.559Z,75.96
2018-11-05T20:23:05.963Z,75.79
2018-11-05T20:25:39.518Z,75.70
2018-11-05T20:28:13.840Z,75.44
2018-11-05T20:30:48.764Z,75.19
2018-11-05T20:33:23.152Z,75.71
2018-11-05T20:41:14.288Z,75.64
2018-11-05T20:43:48.282Z,75.46
2018-11-05T20:46:25.389Z,75.53
2018-11-05T20:51:38.514Z,76.05
2018-11-05T20:54:08.597Z,76.77
2018-11-05T20:56:42.547Z,76.67
2018-11-05T20:59:12.460Z,76.18
2018-11-05T21:01:44.039Z,75.94
2018-11-05T21:04:16.637Z,76.11
2018-11-05T21:06:51.516Z,76.32
2018-11-05T21:09:23.579Z,76.24
2018-11-05T21:11:54.902Z,76.48
2018-11-05T21:14:30.428Z,77.10
2018-11-05T21:17:03.447Z,77.32
2018-11-05T21:19:36.854Z,77.39
2018-11-05T21:22:11.743Z,77.45
2018-11-05T21:24:46.247Z,77.73
2018-11-05T21:27:16.378Z,78.04
2018-11-05T21:29:50.532Z,78.37
2018-11-05T21:32:22.367Z,78.16
2018-11-05T21:34:56.115Z,78.41
2018-11-05T21:37:25.101Z,78.66
2018-11-05T21:39:56.529Z,78.78
2018-11-05T21:42:28.752Z,78.52
2018-11-05T21:45:09.998Z,78.18
2018-11-05T21:47:40.562Z,78.63
2018-11-05T21:50:12.561Z,79.16
2018-11-05T21:52:46.844Z,78.95
2018-11-05T21:55:21.247Z,78.73
2018-11-05T21:57:51.185Z,78.46
2018-11-05T22:00:26.149Z,78.20
2018-11-05T22:03:02.446Z,77.79
2018-11-05T22:05:33.897Z,77.91
2018-11-05T22:08:05.177Z,77.91
2018-11-05T22:10:35.763Z,78.16
2018-11-05T22:13:07.951Z,78.38
2018-11-05T22:15:44.368Z,78.38
2018-11-05T22:18:18.253Z,78.94
2018-11-05T22:20:47.987Z,79.05
2018-11-05T22:23:18.028Z,78.73
2018-11-05T22:25:50.640Z,78.74
2018-11-05T22:28:22.555Z,78.19
2018-11-05T22:30:53.807Z,77.74
2018-11-05T22:33:25.153Z,78.45
2018-11-05T22:35:57.071Z,78.90
2018-11-05T22:38:30.183Z,79.44
2018-11-05T22:41:02.999Z,79.01
2018-11-05T22:43:36.514Z,79.08
2018-11-05T22:46:07.008Z,79.20
2018-11-05T22:48:45.300Z,78.63
2018-11-05T22:51:19.338Z,78.43
2018-11-05T22:53:50.127Z,78.17
2018-11-05T22:56:21.299Z,78.04
2018-11-05T22:58:52.781Z,77.76
2018-11-05T23:01:28.603Z,78.26
2018-11-05T23:04:03.095Z,78.18
2018-11-05T23:06:36.264Z,78.21
2018-11-05T23:09:08.509Z,77.76
2018-11-05T23:11:38.167Z,78.39
2018-11-05T23:14:10.232Z,78.57
2018-11-05T23:16:40.226Z,78.31
2018-11-05T23:19:15.641Z,78.71
2018-11-05T23:21:49.832Z,78.44
2018-11-05T23:24:21.810Z,78.78
2018-11-05T23:26:53.491Z,78.35
2018-11-05T23:29:25.321Z,78.19
2018-11-05T23:31:58.768Z,78.15
2018-11-05T23:34:28.318Z,78.59
2018-11-05T23:37:03.884Z,78.42
2018-11-05T23:39:35.090Z,77.83
2018-11-05T23:42:07.520Z,78.19
2018-11-05T23:44:38.065Z,78.24
2018-11-05T23:47:08.762Z,78.72
2018-11-05T23:49:38.635Z,79.26
2018-11-05T23:52:09.181Z,79.60
2018-11-05T23:54:40.145Z,78.71
2018-11-05T23:57:09.274Z,78.97
2018-11-05T23:59:38.577Z,78.60
